Terminal Aerodrome Forecast
Issued by NWS Louisville, KY

Home | Current Version | Previous Version | Text Only | Print | Product List | Glossary On
Versions: 1 2 3 4 5 6 7 8 9 10 11 12 13 14
000
FTUS43 KLMK 260520
TAFLEX
TAF
KLEX 260520Z 2606/2706 16008KT P6SM VCSH BKN070
     FM260900 16010KT 5SM -SHRA BR BKN021
     FM261500 20013G20KT P6SM VCSH BKN025
     FM261900 21014G22KT P6SM BKN035
     FM270000 20005KT P6SM BKN050=

USA.gov is the U.S. government's official web portal to all federal, state and local government web resources and services.